sensor_id;sensor_type;location;lat;lon;timestamp;pressure;altitude;pressure_sealevel;temperature;humidity
52693;BME280;68218;51.012;-1.648;2023-08-21T00:01:13;101424.94;;;15.61;94.02
52693;BME280;68218;51.012;-1.648;2023-08-21T00:03:38;101420.28;;;15.57;93.59
52693;BME280;68218;51.012;-1.648;2023-08-21T00:06:04;101424.09;;;15.55;93.59
52693;BME280;68218;51.012;-1.648;2023-08-21T00:08:29;101418.38;;;15.52;93.27
52693;BME280;68218;51.012;-1.648;2023-08-21T00:10:55;101410.72;;;15.49;93.52
52693;BME280;68218;51.012;-1.648;2023-08-21T00:13:21;101412.63;;;15.43;94.33
52693;BME280;68218;51.012;-1.648;2023-08-21T00:15:46;101408.28;;;15.42;94.72
52693;BME280;68218;51.012;-1.648;2023-08-21T00:18:11;101407.72;;;15.45;95.29
52693;BME280;68218;51.012;-1.648;2023-08-21T00:20:37;101414.56;;;15.48;95.39
52693;BME280;68218;51.012;-1.648;2023-08-21T00:23:02;101408.56;;;15.41;95.80
52693;BME280;68218;51.012;-1.648;2023-08-21T00:25:28;101414.56;;;15.48;94.92
52693;BME280;68218;51.012;-1.648;2023-08-21T00:27:53;101414.84;;;15.51;94.98
52693;BME280;68218;51.012;-1.648;2023-08-21T00:30:19;101418.59;;;15.45;94.99
52693;BME280;68218;51.012;-1.648;2023-08-21T00:32:44;101413.44;;;15.49;94.99
52693;BME280;68218;51.012;-1.648;2023-08-21T00:35:10;101411.28;;;15.41;95.70
52693;BME280;68218;51.012;-1.648;2023-08-21T00:37:35;101424.34;;;15.54;95.33
52693;BME280;68218;51.012;-1.648;2023-08-21T00:40:02;101424.94;;;15.61;95.44
52693;BME280;68218;51.012;-1.648;2023-08-21T00:42:27;101419.53;;;15.71;95.33
52693;BME280;68218;51.012;-1.648;2023-08-21T00:44:53;101422.03;;;15.78;95.69
52693;BME280;68218;51.012;-1.648;2023-08-21T00:47:18;101422.59;;;15.90;95.83
52693;BME280;68218;51.012;-1.648;2023-08-21T00:49:44;101425.88;;;15.98;96.11
52693;BME280;68218;51.012;-1.648;2023-08-21T00:52:14;101425.34;;;16.06;96.60
52693;BME280;68218;51.012;-1.648;2023-08-21T00:54:40;101415.53;;;16.10;96.29
52693;BME280;68218;51.012;-1.648;2023-08-21T00:57:06;101413.34;;;16.07;96.07
52693;BME280;68218;51.012;-1.648;2023-08-21T00:59:31;101414.75;;;16.20;96.73
52693;BME280;68218;51.012;-1.648;2023-08-21T01:01:57;101419.91;;;16.26;96.29
52693;BME280;68218;51.012;-1.648;2023-08-21T01:04:22;101424.53;;;16.36;95.62
52693;BME280;68218;51.012;-1.648;2023-08-21T01:06:49;101429.69;;;16.02;94.50
52693;BME280;68218;51.012;-1.648;2023-08-21T01:09:34;101420.31;;;15.62;96.68
52693;BME280;68218;51.012;-1.648;2023-08-21T01:14:55;101426.38;;;15.84;96.10
52693;BME280;68218;51.012;-1.648;2023-08-21T01:17:23;101422.34;;;15.92;97.09
52693;BME280;68218;51.012;-1.648;2023-08-21T01:19:49;101427.22;;;16.10;96.78
52693;BME280;68218;51.012;-1.648;2023-08-21T01:22:15;101424.78;;;16.24;95.87
52693;BME280;68218;51.012;-1.648;2023-08-21T01:24:41;101425.38;;;16.26;95.14
52693;BME280;68218;51.012;-1.648;2023-08-21T01:27:07;101422.66;;;16.32;95.95
52693;BME280;68218;51.012;-1.648;2023-08-21T01:29:33;101425.91;;;16.28;96.46
52693;BME280;68218;51.012;-1.648;2023-08-21T01:32:07;101429.72;;;16.43;96.27
52693;BME280;68218;51.012;-1.648;2023-08-21T01:34:37;101409.31;;;16.40;95.96
52693;BME280;68218;51.012;-1.648;2023-08-21T01:37:03;101433.28;;;16.43;96.69
52693;BME280;68218;51.012;-1.648;2023-08-21T01:39:29;101425.09;;;16.54;96.46
52693;BME280;68218;51.012;-1.648;2023-08-21T01:41:56;101431.09;;;16.56;97.40
52693;BME280;68218;51.012;-1.648;2023-08-21T01:44:21;101423.19;;;16.59;96.47
52693;BME280;68218;51.012;-1.648;2023-08-21T01:46:47;101425.34;;;16.67;95.96
52693;BME280;68218;51.012;-1.648;2023-08-21T01:49:12;101421.53;;;16.69;96.32
52693;BME280;68218;51.012;-1.648;2023-08-21T01:51:38;101420.19;;;16.61;97.03
52693;BME280;68218;51.012;-1.648;2023-08-21T01:54:03;101413.09;;;16.60;97.19
52693;BME280;68218;51.012;-1.648;2023-08-21T01:56:28;101421.53;;;16.63;97.14
52693;BME280;68218;51.012;-1.648;2023-08-21T01:58:54;101417.72;;;16.70;96.21
52693;BME280;68218;51.012;-1.648;2023-08-21T02:01:19;101423.16;;;16.75;96.22
52693;BME280;68218;51.012;-1.648;2023-08-21T02:03:45;101416.59;;;16.71;96.37
52693;BME280;68218;51.012;-1.648;2023-08-21T02:06:11;101415.00;;;16.75;96.29
52693;BME280;68218;51.012;-1.648;2023-08-21T02:08:36;101419.91;;;16.67;96.67
52693;BME280;68218;51.012;-1.648;2023-08-21T02:11:02;101423.69;;;16.77;96.77
52693;BME280;68218;51.012;-1.648;2023-08-21T02:13:27;101423.97;;;16.75;96.15
52693;BME280;68218;51.012;-1.648;2023-08-21T02:15:53;101424.50;;;16.82;96.02
52693;BME280;68218;51.012;-1.648;2023-08-21T02:18:18;101425.59;;;16.81;96.15
52693;BME280;68218;51.012;-1.648;2023-08-21T02:20:44;101428.63;;;16.85;95.95
52693;BME280;68218;51.012;-1.648;2023-08-21T02:23:09;101430.53;;;16.74;95.95
52693;BME280;68218;51.012;-1.648;2023-08-21T02:25:35;101435.16;;;16.84;95.87
52693;BME280;68218;51.012;-1.648;2023-08-21T02:28:00;101434.59;;;16.72;96.00
52693;BME280;68218;51.012;-1.648;2023-08-21T02:30:28;101435.16;;;16.63;96.07
52693;BME280;68218;51.012;-1.648;2023-08-21T02:32:54;101432.97;;;16.55;96.29
52693;BME280;68218;51.012;-1.648;2023-08-21T02:35:22;101431.88;;;16.72;96.17
52693;BME280;68218;51.012;-1.648;2023-08-21T02:37:47;101431.06;;;16.76;96.56
52693;BME280;68218;51.012;-1.648;2023-08-21T02:40:13;101435.13;;;16.79;96.29
52693;BME280;68218;51.012;-1.648;2023-08-21T02:42:38;101435.66;;;16.76;96.83
52693;BME280;68218;51.012;-1.648;2023-08-21T02:45:04;101423.16;;;16.80;96.56
52693;BME280;68218;51.012;-1.648;2023-08-21T02:47:40;101426.97;;;16.79;95.98
52693;BME280;68218;51.012;-1.648;2023-08-21T02:50:06;101420.69;;;16.83;95.56
52693;BME280;68218;51.012;-1.648;2023-08-21T02:52:33;101423.72;;;16.87;95.98
52693;BME280;68218;51.012;-1.648;2023-08-21T02:54:59;101416.63;;;16.86;95.76
52693;BME280;68218;51.012;-1.648;2023-08-21T02:57:25;101422.88;;;16.81;95.66
52693;BME280;68218;51.012;-1.648;2023-08-21T02:59:50;101422.06;;;16.86;95.55
52693;BME280;68218;51.012;-1.648;2023-08-21T03:02:17;101421.53;;;16.89;95.89
52693;BME280;68218;51.012;-1.648;2023-08-21T03:04:42;101428.63;;;16.90;95.45
52693;BME280;68218;51.012;-1.648;2023-08-21T03:07:07;101429.97;;;16.88;95.94
52693;BME280;68218;51.012;-1.648;2023-08-21T03:09:33;101431.88;;;16.87;96.03
52693;BME280;68218;51.012;-1.648;2023-08-21T03:11:58;101428.34;;;16.87;95.85
52693;BME280;68218;51.012;-1.648;2023-08-21T03:14:26;101428.59;;;16.95;95.39
52693;BME280;68218;51.012;-1.648;2023-08-21T03:16:51;101433.53;;;16.88;95.53
52693;BME280;68218;51.012;-1.648;2023-08-21T03:19:17;101435.69;;;16.91;94.89
52693;BME280;68218;51.012;-1.648;2023-08-21T03:21:42;101430.81;;;16.88;95.18
52693;BME280;68218;51.012;-1.648;2023-08-21T03:24:07;101435.69;;;16.91;94.88
52693;BME280;68218;51.012;-1.648;2023-08-21T03:26:33;101437.31;;;16.77;94.04
52693;BME280;68218;51.012;-1.648;2023-08-21T03:28:58;101429.41;;;16.70;94.91
52693;BME280;68218;51.012;-1.648;2023-08-21T03:31:24;101430.78;;;16.78;94.84
52693;BME280;68218;51.012;-1.648;2023-08-21T03:33:49;101433.50;;;16.78;95.23
52693;BME280;68218;51.012;-1.648;2023-08-21T03:36:14;101431.63;;;16.58;94.98
52693;BME280;68218;51.012;-1.648;2023-08-21T03:38:40;101432.97;;;16.50;94.35
52693;BME280;68218;51.012;-1.648;2023-08-21T03:41:06;101429.72;;;16.43;95.22
52693;BME280;68218;51.012;-1.648;2023-08-21T03:43:32;101431.63;;;16.37;95.30
52693;BME280;68218;51.012;-1.648;2023-08-21T03:45:57;101425.38;;;16.42;96.04
52693;BME280;68218;51.012;-1.648;2023-08-21T03:48:23;101429.97;;;16.52;96.37
52693;BME280;68218;51.012;-1.648;2023-08-21T03:50:49;101426.72;;;16.55;96.00
52693;BME280;68218;51.012;-1.648;2023-08-21T03:53:15;101426.97;;;16.58;95.89
52693;BME280;68218;51.012;-1.648;2023-08-21T03:55:40;101421.25;;;16.65;95.80
52693;BME280;68218;51.012;-1.648;2023-08-21T03:58:05;101410.09;;;16.56;95.71
52693;BME280;68218;51.012;-1.648;2023-08-21T04:00:31;101420.97;;;16.66;95.37
52693;BME280;68218;51.012;-1.648;2023-08-21T04:02:57;101422.91;;;16.71;95.58
52693;BME280;68218;51.012;-1.648;2023-08-21T04:05:23;101422.06;;;16.65;95.78
52693;BME280;68218;51.012;-1.648;2023-08-21T04:07:48;101424.25;;;16.74;94.46
52693;BME280;68218;51.012;-1.648;2023-08-21T04:10:14;101422.88;;;16.76;95.36
52693;BME280;68218;51.012;-1.648;2023-08-21T04:12:39;101420.72;;;16.68;95.48
52693;BME280;68218;51.012;-1.648;2023-08-21T04:15:05;101432.69;;;16.72;95.80
52693;BME280;68218;51.012;-1.648;2023-08-21T04:17:31;101415.25;;;16.78;95.35
52693;BME280;68218;51.012;-1.648;2023-08-21T04:19:56;101421.22;;;16.80;95.55
52693;BME280;68218;51.012;-1.648;2023-08-21T04:22:22;101416.06;;;16.79;95.29
52693;BME280;68218;51.012;-1.648;2023-08-21T04:24:48;101416.06;;;16.74;95.28
52693;BME280;68218;51.012;-1.648;2023-08-21T04:27:13;101420.69;;;16.78;95.41
52693;BME280;68218;51.012;-1.648;2023-08-21T04:29:39;101423.97;;;16.80;95.36
52693;BME280;68218;51.012;-1.648;2023-08-21T04:32:05;101427.22;;;16.82;94.75
52693;BME280;68218;51.012;-1.648;2023-08-21T04:34:35;101423.16;;;16.80;94.42
52693;BME280;68218;51.012;-1.648;2023-08-21T04:37:00;101416.91;;;16.79;95.14
52693;BME280;68218;51.012;-1.648;2023-08-21T04:39:26;101424.75;;;16.81;94.92
52693;BME280;68218;51.012;-1.648;2023-08-21T04:41:51;101434.06;;;16.90;94.83
52693;BME280;68218;51.012;-1.648;2023-08-21T04:44:17;101433.81;;;16.87;94.27
52693;BME280;68218;51.012;-1.648;2023-08-21T04:46:42;101432.97;;;16.86;94.41
52693;BME280;68218;51.012;-1.648;2023-08-21T04:49:08;101428.34;;;16.87;94.59
52693;BME280;68218;51.012;-1.648;2023-08-21T04:51:34;101423.69;;;16.82;94.33
52693;BME280;68218;51.012;-1.648;2023-08-21T04:53:59;101441.69;;;16.78;94.00
52693;BME280;68218;51.012;-1.648;2023-08-21T04:56:25;101434.84;;;16.80;95.01
52693;BME280;68218;51.012;-1.648;2023-08-21T04:58:52;101430.78;;;16.78;95.15
52693;BME280;68218;51.012;-1.648;2023-08-21T05:01:18;101435.13;;;16.74;94.90
52693;BME280;68218;51.012;-1.648;2023-08-21T05:03:43;101438.72;;;16.84;94.86
52693;BME280;68218;51.012;-1.648;2023-08-21T05:06:09;101429.16;;;16.87;94.66
52693;BME280;68218;51.012;-1.648;2023-08-21T05:08:34;101444.69;;;16.92;93.92
52693;BME280;68218;51.012;-1.648;2023-08-21T05:11:00;101441.69;;;16.88;93.77
52693;BME280;68218;51.012;-1.648;2023-08-21T05:13:26;101445.22;;;16.83;93.90
52693;BME280;68218;51.012;-1.648;2023-08-21T05:15:56;101454.75;;;16.86;95.01
52693;BME280;68218;51.012;-1.648;2023-08-21T05:18:22;101458.59;;;16.90;94.96
52693;BME280;68218;51.012;-1.648;2023-08-21T05:20:49;101452.34;;;16.84;94.55
52693;BME280;68218;51.012;-1.648;2023-08-21T05:23:15;101457.22;;;16.88;94.29
52693;BME280;68218;51.012;-1.648;2023-08-21T05:25:42;101459.41;;;16.85;93.74
52693;BME280;68218;51.012;-1.648;2023-08-21T05:28:07;101448.50;;;16.91;93.74
52693;BME280;68218;51.012;-1.648;2023-08-21T05:30:36;101452.34;;;16.90;93.91
52693;BME280;68218;51.012;-1.648;2023-08-21T05:33:02;101428.34;;;16.76;94.27
52693;BME280;68218;51.012;-1.648;2023-08-21T05:35:28;101461.06;;;16.87;94.18
52693;BME280;68218;51.012;-1.648;2023-08-21T05:37:53;101466.22;;;16.93;94.99
52693;BME280;68218;51.012;-1.648;2023-08-21T05:40:18;101465.38;;;16.98;94.16
52693;BME280;68218;51.012;-1.648;2023-08-21T05:42:44;101463.50;;;16.93;94.04
52693;BME280;68218;51.012;-1.648;2023-08-21T05:45:10;101467.31;;;16.87;93.66
52693;BME280;68218;51.012;-1.648;2023-08-21T05:47:35;101458.59;;;16.95;94.08
52693;BME280;68218;51.012;-1.648;2023-08-21T05:50:01;101464.28;;;16.99;94.34
52693;BME280;68218;51.012;-1.648;2023-08-21T05:52:26;101467.00;;;17.04;95.15
52693;BME280;68218;51.012;-1.648;2023-08-21T05:54:52;101467.28;;;17.08;94.10
52693;BME280;68218;51.012;-1.648;2023-08-21T05:57:17;101466.19;;;17.14;94.37
52693;BME280;68218;51.012;-1.648;2023-08-21T05:59:44;101478.47;;;17.01;93.36
52693;BME280;68218;51.012;-1.648;2023-08-21T06:02:10;101472.22;;;16.90;93.09
52693;BME280;68218;51.012;-1.648;2023-08-21T06:04:36;101470.28;;;16.80;93.53
52693;BME280;68218;51.012;-1.648;2023-08-21T06:07:02;101472.75;;;16.87;94.18
52693;BME280;68218;51.012;-1.648;2023-08-21T06:09:29;101468.09;;;16.77;92.87
52693;BME280;68218;51.012;-1.648;2023-08-21T06:11:55;101469.22;;;16.71;93.98
52693;BME280;68218;51.012;-1.648;2023-08-21T06:14:20;101467.56;;;16.65;94.40
52693;BME280;68218;51.012;-1.648;2023-08-21T06:16:53;101471.66;;;16.73;94.37
52693;BME280;68218;51.012;-1.648;2023-08-21T06:19:19;101471.09;;;16.65;94.08
52693;BME280;68218;51.012;-1.648;2023-08-21T06:21:44;101471.09;;;16.65;94.47
52693;BME280;68218;51.012;-1.648;2023-08-21T06:24:10;101465.09;;;16.69;94.32
52693;BME280;68218;51.012;-1.648;2023-08-21T06:26:35;101470.56;;;16.74;94.04
52693;BME280;68218;51.012;-1.648;2023-08-21T06:29:00;101469.19;;;16.81;94.79
52693;BME280;68218;51.012;-1.648;2023-08-21T06:31:26;101474.69;;;16.87;93.93
52693;BME280;68218;51.012;-1.648;2023-08-21T06:33:51;101477.13;;;16.93;94.46
52693;BME280;68218;51.012;-1.648;2023-08-21T06:36:17;101485.03;;;16.95;94.30
52693;BME280;68218;51.012;-1.648;2023-08-21T06:38:42;101477.13;;;16.93;93.93
52693;BME280;68218;51.012;-1.648;2023-08-21T06:41:09;101479.00;;;16.88;93.18
52693;BME280;68218;51.012;-1.648;2023-08-21T06:43:34;101478.72;;;16.94;93.19
52693;BME280;68218;51.012;-1.648;2023-08-21T06:46:01;101488.56;;;17.00;92.27
52693;BME280;68218;51.012;-1.648;2023-08-21T06:48:26;101480.38;;;16.95;92.32
52693;BME280;68218;51.012;-1.648;2023-08-21T06:50:52;101490.16;;;17.01;92.51
52693;BME280;68218;51.012;-1.648;2023-08-21T06:53:20;101485.50;;;17.22;92.10
52693;BME280;68218;51.012;-1.648;2023-08-21T06:55:45;101484.59;;;17.48;92.48
52693;BME280;68218;51.012;-1.648;2023-08-21T06:58:11;101485.91;;;17.66;91.75
52693;BME280;68218;51.012;-1.648;2023-08-21T07:00:37;101490.06;;;17.42;90.01
52693;BME280;68218;51.012;-1.648;2023-08-21T07:03:02;101494.91;;;17.61;91.69
52693;BME280;68218;51.012;-1.648;2023-08-21T07:05:28;101490.84;;;17.64;89.89
52693;BME280;68218;51.012;-1.648;2023-08-21T07:07:54;101486.06;;;17.95;91.00
52693;BME280;68218;51.012;-1.648;2023-08-21T07:10:20;101479.22;;;18.03;87.38
52693;BME280;68218;51.012;-1.648;2023-08-21T07:12:46;101481.75;;;18.33;88.40
52693;BME280;68218;51.012;-1.648;2023-08-21T07:15:11;101476.88;;;18.25;83.23
52693;BME280;68218;51.012;-1.648;2023-08-21T07:17:37;101481.47;;;18.64;86.19
52693;BME280;68218;51.012;-1.648;2023-08-21T07:20:03;101478.81;;;18.94;85.09
52693;BME280;68218;51.012;-1.648;2023-08-21T07:22:29;101480.41;;;18.95;80.85
52693;BME280;68218;51.012;-1.648;2023-08-21T07:24:54;101483.00;;;19.10;80.97
52693;BME280;68218;51.012;-1.648;2023-08-21T07:27:20;101476.72;;;19.34;82.31
52693;BME280;68218;51.012;-1.648;2023-08-21T07:29:45;101479.25;;;19.30;79.91
52693;BME280;68218;51.012;-1.648;2023-08-21T07:32:11;101467.00;;;19.46;79.91
52693;BME280;68218;51.012;-1.648;2023-08-21T07:34:36;101465.78;;;19.58;78.74
52693;BME280;68218;51.012;-1.648;2023-08-21T07:37:02;101463.78;;;19.63;77.63
52693;BME280;68218;51.012;-1.648;2023-08-21T07:39:27;101464.72;;;19.78;77.66
52693;BME280;68218;51.012;-1.648;2023-08-21T07:41:53;101457.31;;;19.78;79.50
52693;BME280;68218;51.012;-1.648;2023-08-21T07:44:18;101479.97;;;19.84;76.91
52693;BME280;68218;51.012;-1.648;2023-08-21T07:46:44;101483.31;;;20.00;76.79
52693;BME280;68218;51.012;-1.648;2023-08-21T07:49:09;101475.25;;;20.09;76.12
52693;BME280;68218;51.012;-1.648;2023-08-21T07:51:35;101475.38;;;19.79;76.73
52693;BME280;68218;51.012;-1.648;2023-08-21T07:54:01;101469.69;;;20.14;77.24
52693;BME280;68218;51.012;-1.648;2023-08-21T07:56:26;101475.97;;;20.33;75.72
52693;BME280;68218;51.012;-1.648;2023-08-21T07:58:52;101465.13;;;20.42;75.81
52693;BME280;68218;51.012;-1.648;2023-08-21T08:01:17;101454.09;;;20.47;74.65
52693;BME280;68218;51.012;-1.648;2023-08-21T08:03:45;101461.03;;;20.58;75.09
52693;BME280;68218;51.012;-1.648;2023-08-21T08:06:10;101461.00;;;20.45;71.73
52693;BME280;68218;51.012;-1.648;2023-08-21T08:08:36;101462.28;;;20.66;75.23
52693;BME280;68218;51.012;-1.648;2023-08-21T08:11:04;101461.09;;;20.39;71.96
52693;BME280;68218;51.012;-1.648;2023-08-21T08:13:31;101470.38;;;20.57;75.37
52693;BME280;68218;51.012;-1.648;2023-08-21T08:15:57;101467.53;;;20.30;75.46
52693;BME280;68218;51.012;-1.648;2023-08-21T08:18:22;101475.75;;;20.30;76.63
52693;BME280;68218;51.012;-1.648;2023-08-21T08:20:47;101476.88;;;20.10;74.00
52693;BME280;68218;51.012;-1.648;2023-08-21T08:23:13;101469.63;;;20.19;74.84
52693;BME280;68218;51.012;-1.648;2023-08-21T08:25:38;101474.44;;;20.27;74.87
52693;BME280;68218;51.012;-1.648;2023-08-21T08:28:05;101461.91;;;20.21;72.76
52693;BME280;68218;51.012;-1.648;2023-08-21T08:30:30;101458.53;;;20.10;72.29
52693;BME280;68218;51.012;-1.648;2023-08-21T08:32:56;101462.72;;;20.21;74.94
52693;BME280;68218;51.012;-1.648;2023-08-21T08:35:21;101465.75;;;20.20;75.91
52693;BME280;68218;51.012;-1.648;2023-08-21T08:37:47;101462.78;;;20.16;74.26
52693;BME280;68218;51.012;-1.648;2023-08-21T08:40:13;101464.84;;;20.44;74.49
52693;BME280;68218;51.012;-1.648;2023-08-21T08:42:38;101457.97;;;20.46;75.08
52693;BME280;68218;51.012;-1.648;2023-08-21T08:45:04;101468.91;;;20.65;73.77
52693;BME280;68218;51.012;-1.648;2023-08-21T08:47:34;101458.78;;;20.47;72.83
52693;BME280;68218;51.012;-1.648;2023-08-21T08:50:04;101470.41;;;20.38;73.73
52693;BME280;68218;51.012;-1.648;2023-08-21T08:52:34;101460.88;;;20.36;73.94
52693;BME280;68218;51.012;-1.648;2023-08-21T08:55:00;101469.53;;;20.24;71.34
52693;BME280;68218;51.012;-1.648;2023-08-21T08:57:27;101463.97;;;20.29;74.22
52693;BME280;68218;51.012;-1.648;2023-08-21T08:59:53;101473.56;;;20.46;73.38
52693;BME280;68218;51.012;-1.648;2023-08-21T09:02:18;101467.44;;;20.35;75.81
52693;BME280;68218;51.012;-1.648;2023-08-21T09:04:43;101484.19;;;20.33;72.13
52693;BME280;68218;51.012;-1.648;2023-08-21T09:07:10;101476.78;;;20.15;75.01
52693;BME280;68218;51.012;-1.648;2023-08-21T09:09:40;101481.31;;;19.87;71.39
52693;BME280;68218;51.012;-1.648;2023-08-21T09:12:12;101475.63;;;20.02;73.24
52693;BME280;68218;51.012;-1.648;2023-08-21T09:14:42;101489.75;;;20.09;73.30
52693;BME280;68218;51.012;-1.648;2023-08-21T09:17:08;101487.75;;;19.96;74.46
52693;BME280;68218;51.012;-1.648;2023-08-21T09:19:34;101489.47;;;20.11;74.13
52693;BME280;68218;51.012;-1.648;2023-08-21T09:22:14;101488.06;;;20.32;74.57
52693;BME280;68218;51.012;-1.648;2023-08-21T09:24:40;101486.91;;;20.52;72.42
52693;BME280;68218;51.012;-1.648;2023-08-21T09:27:15;101492.66;;;20.51;73.63
52693;BME280;68218;51.012;-1.648;2023-08-21T09:29:42;101482.09;;;20.63;74.39
52693;BME280;68218;51.012;-1.648;2023-08-21T09:32:07;101485.41;;;20.60;72.58
52693;BME280;68218;51.012;-1.648;2023-08-21T09:34:36;101488.72;;;20.76;74.08
52693;BME280;68218;51.012;-1.648;2023-08-21T09:37:06;101494.19;;;20.62;72.49
52693;BME280;68218;51.012;-1.648;2023-08-21T09:39:35;101484.28;;;20.61;71.52
52693;BME280;68218;51.012;-1.648;2023-08-21T09:42:06;101496.38;;;20.79;72.74
52693;BME280;68218;51.012;-1.648;2023-08-21T09:44:35;101474.94;;;20.81;72.89
52693;BME280;68218;51.012;-1.648;2023-08-21T09:47:01;101490.22;;;21.01;70.53
52693;BME280;68218;51.012;-1.648;2023-08-21T09:49:26;101492.22;;;20.95;72.44
52693;BME280;68218;51.012;-1.648;2023-08-21T09:51:52;101492.00;;;20.92;71.54
52693;BME280;68218;51.012;-1.648;2023-08-21T09:54:20;101484.06;;;20.76;72.03
52693;BME280;68218;51.012;-1.648;2023-08-21T09:56:46;101489.66;;;20.33;72.39
52693;BME280;68218;51.012;-1.648;2023-08-21T09:59:13;101474.50;;;20.22;75.27
52693;BME280;68218;51.012;-1.648;2023-08-21T10:01:39;101495.66;;;20.35;75.74
52693;BME280;68218;51.012;-1.648;2023-08-21T10:04:06;101490.56;;;20.48;74.00
52693;BME280;68218;51.012;-1.648;2023-08-21T10:06:34;101489.19;;;20.64;75.48
52693;BME280;68218;51.012;-1.648;2023-08-21T10:09:01;101480.09;;;20.69;74.94
52693;BME280;68218;51.012;-1.648;2023-08-21T10:11:27;101488.31;;;20.69;75.89
52693;BME280;68218;51.012;-1.648;2023-08-21T10:13:53;101485.41;;;20.60;74.28
52693;BME280;68218;51.012;-1.648;2023-08-21T10:16:19;101480.97;;;20.64;73.23
52693;BME280;68218;51.012;-1.648;2023-08-21T10:18:46;101472.09;;;20.86;68.76
52693;BME280;68218;51.012;-1.648;2023-08-21T10:21:17;101468.47;;;21.74;69.35
52693;BME280;68218;51.012;-1.648;2023-08-21T10:23:46;101461.81;;;22.25;69.81
52693;BME280;68218;51.012;-1.648;2023-08-21T10:26:12;101461.53;;;21.91;68.99
52693;BME280;68218;51.012;-1.648;2023-08-21T10:29:00;101455.19;;;22.04;66.81
52693;BME280;68218;51.012;-1.648;2023-08-21T10:31:39;101462.34;;;22.50;66.38
52693;BME280;68218;51.012;-1.648;2023-08-21T10:34:06;101456.72;;;22.87;64.82
52693;BME280;68218;51.012;-1.648;2023-08-21T10:39:23;101459.59;;;22.14;67.46
52693;BME280;68218;51.012;-1.648;2023-08-21T10:41:57;101460.41;;;22.28;68.87
52693;BME280;68218;51.012;-1.648;2023-08-21T10:44:35;101455.38;;;22.07;69.60
52693;BME280;68218;51.012;-1.648;2023-08-21T10:47:17;101451.09;;;22.01;65.11
52693;BME280;68218;51.012;-1.648;2023-08-21T10:49:47;101450.41;;;21.96;67.88
52693;BME280;68218;51.012;-1.648;2023-08-21T10:52:14;101445.44;;;21.98;65.93
52693;BME280;68218;51.012;-1.648;2023-08-21T10:54:47;101430.41;;;21.81;66.43
52693;BME280;68218;51.012;-1.648;2023-08-21T10:57:14;101440.34;;;21.91;66.28
52693;BME280;68218;51.012;-1.648;2023-08-21T10:59:56;101442.78;;;22.52;64.31
52693;BME280;68218;51.012;-1.648;2023-08-21T11:02:23;101434.63;;;22.69;63.44
52693;BME280;68218;51.012;-1.648;2023-08-21T11:04:49;101439.13;;;22.65;64.20
52693;BME280;68218;51.012;-1.648;2023-08-21T11:07:15;101444.88;;;22.10;65.66
52693;BME280;68218;51.012;-1.648;2023-08-21T11:09:41;101440.31;;;21.68;65.66
52693;BME280;68218;51.012;-1.648;2023-08-21T11:12:14;101449.72;;;21.90;68.36
52693;BME280;68218;51.012;-1.648;2023-08-21T11:14:40;101444.03;;;21.86;65.15
52693;BME280;68218;51.012;-1.648;2023-08-21T11:17:07;101437.50;;;21.96;66.52
52693;BME280;68218;51.012;-1.648;2023-08-21T11:19:33;101448.41;;;21.87;68.11
52693;BME280;68218;51.012;-1.648;2023-08-21T11:21:59;101436.06;;;21.99;66.66
52693;BME280;68218;51.012;-1.648;2023-08-21T11:27:14;101431.00;;;21.92;65.53
52693;BME280;68218;51.012;-1.648;2023-08-21T11:29:44;101428.81;;;22.03;67.81
52693;BME280;68218;51.012;-1.648;2023-08-21T11:32:14;101431.97;;;22.33;66.11
52693;BME280;68218;51.012;-1.648;2023-08-21T11:34:53;101427.00;;;21.62;64.00
52693;BME280;68218;51.012;-1.648;2023-08-21T11:37:20;101434.94;;;22.00;67.60
52693;BME280;68218;51.012;-1.648;2023-08-21T11:39:51;101409.72;;;21.98;65.71
52693;BME280;68218;51.012;-1.648;2023-08-21T11:42:19;101419.41;;;21.95;68.74
52693;BME280;68218;51.012;-1.648;2023-08-21T11:44:51;101411.94;;;21.73;65.64
52693;BME280;68218;51.012;-1.648;2023-08-21T11:47:18;101413.31;;;21.84;66.47
52693;BME280;68218;51.012;-1.648;2023-08-21T11:49:45;101407.59;;;22.17;66.89
52693;BME280;68218;51.012;-1.648;2023-08-21T11:52:13;101410.88;;;22.42;63.67
52693;BME280;68218;51.012;-1.648;2023-08-21T11:54:40;101413.78;;;22.00;64.53
52693;BME280;68218;51.012;-1.648;2023-08-21T11:57:13;101395.97;;;22.43;61.95
52693;BME280;68218;51.012;-1.648;2023-08-21T11:59:39;101408.16;;;22.82;62.73
52693;BME280;68218;51.012;-1.648;2023-08-21T12:02:28;101402.28;;;21.62;63.73
52693;BME280;68218;51.012;-1.648;2023-08-21T12:04:56;101406.31;;;22.37;65.57
52693;BME280;68218;51.012;-1.648;2023-08-21T12:07:25;101399.91;;;22.82;65.81
52693;BME280;68218;51.012;-1.648;2023-08-21T12:09:51;101400.47;;;23.02;64.89
52693;BME280;68218;51.012;-1.648;2023-08-21T12:12:16;101382.75;;;22.45;66.08
52693;BME280;68218;51.012;-1.648;2023-08-21T12:14:42;101405.59;;;22.54;63.40
52693;BME280;68218;51.012;-1.648;2023-08-21T12:17:07;101404.09;;;22.03;66.53
52693;BME280;68218;51.012;-1.648;2023-08-21T12:19:33;101409.97;;;22.10;66.90
52693;BME280;68218;51.012;-1.648;2023-08-21T12:21:58;101401.16;;;21.99;67.68
52693;BME280;68218;51.012;-1.648;2023-08-21T12:24:24;101396.97;;;22.02;65.86
52693;BME280;68218;51.012;-1.648;2023-08-21T12:26:50;101406.97;;;21.98;68.98
52693;BME280;68218;51.012;-1.648;2023-08-21T12:29:15;101404.78;;;22.54;69.92
52693;BME280;68218;51.012;-1.648;2023-08-21T12:31:41;101398.59;;;22.79;66.15
52693;BME280;68218;51.012;-1.648;2023-08-21T12:34:06;101393.84;;;22.62;61.38
52693;BME280;68218;51.012;-1.648;2023-08-21T12:36:34;101393.00;;;22.93;64.93
52693;BME280;68218;51.012;-1.648;2023-08-21T12:39:01;101402.81;;;23.17;65.12
52693;BME280;68218;51.012;-1.648;2023-08-21T12:41:26;101393.69;;;22.68;61.38
52693;BME280;68218;51.012;-1.648;2023-08-21T12:43:51;101399.66;;;23.01;67.14
52693;BME280;68218;51.012;-1.648;2023-08-21T12:46:17;101395.84;;;23.19;66.91